13°C Temp
10°C Dewpoint
82% Humidity
Temperature
8 KM/H
5 MPH
4 KTS
210°
South South
West

Wind Speed
Clear
Conditions
Pressure 1029.92 (hPa) - 30.41 (in)
Visibility 6.2 (mi) - 10.0 (km)

Current Conditions
EGNJ
Location 20(mi)
Metar :EGNJ 191950Z 21004KT CAVOK 13/10 Q1030
Thu 19th September 20:50 pm

Airport
  Metar Aviation API Data Provided by https://www.checkwx.com/ PHP scripts by weather34.com ©2019